sensor_id;sensor_type;location;lat;lon;timestamp;temperature;humidity
37844;DHT22;63793;57.632;18.292;2023-06-14T00:00:15;11.10;98.60
37844;DHT22;63793;57.632;18.292;2023-06-14T00:02:43;11.10;98.50
37844;DHT22;63793;57.632;18.292;2023-06-14T00:05:10;11.10;98.40
37844;DHT22;63793;57.632;18.292;2023-06-14T00:07:40;11.10;98.30
37844;DHT22;63793;57.632;18.292;2023-06-14T00:10:14;11.00;98.40
37844;DHT22;63793;57.632;18.292;2023-06-14T00:12:42;11.00;98.50
37844;DHT22;63793;57.632;18.292;2023-06-14T00:15:09;11.00;98.60
37844;DHT22;63793;57.632;18.292;2023-06-14T00:17:36;10.90;98.70
37844;DHT22;63793;57.632;18.292;2023-06-14T00:20:06;10.90;98.70
37844;DHT22;63793;57.632;18.292;2023-06-14T00:22:33;10.80;98.80
37844;DHT22;63793;57.632;18.292;2023-06-14T00:25:00;10.80;99.00
37844;DHT22;63793;57.632;18.292;2023-06-14T00:27:45;10.80;99.10
37844;DHT22;63793;57.632;18.292;2023-06-14T00:30:14;10.70;99.10
37844;DHT22;63793;57.632;18.292;2023-06-14T00:32:41;10.70;99.00
37844;DHT22;63793;57.632;18.292;2023-06-14T00:35:10;10.70;98.80
37844;DHT22;63793;57.632;18.292;2023-06-14T00:37:37;10.70;99.20
37844;DHT22;63793;57.632;18.292;2023-06-14T00:40:05;10.60;99.40
37844;DHT22;63793;57.632;18.292;2023-06-14T00:42:33;10.60;99.60
37844;DHT22;63793;57.632;18.292;2023-06-14T00:45:00;10.50;99.70
37844;DHT22;63793;57.632;18.292;2023-06-14T00:47:27;10.50;99.40
37844;DHT22;63793;57.632;18.292;2023-06-14T00:49:55;10.50;99.60
37844;DHT22;63793;57.632;18.292;2023-06-14T00:52:23;10.40;99.70
37844;DHT22;63793;57.632;18.292;2023-06-14T00:54:51;10.40;99.70
37844;DHT22;63793;57.632;18.292;2023-06-14T00:57:17;10.40;99.70
37844;DHT22;63793;57.632;18.292;2023-06-14T00:59:48;10.30;99.90
37844;DHT22;63793;57.632;18.292;2023-06-14T01:02:16;10.30;99.90
37844;DHT22;63793;57.632;18.292;2023-06-14T01:04:47;10.20;99.80
37844;DHT22;63793;57.632;18.292;2023-06-14T01:16:03;10.10;99.90
37844;DHT22;63793;57.632;18.292;2023-06-14T01:18:31;10.10;99.90
37844;DHT22;63793;57.632;18.292;2023-06-14T01:21:01;10.00;99.90
37844;DHT22;63793;57.632;18.292;2023-06-14T01:23:32;10.00;99.90
37844;DHT22;63793;57.632;18.292;2023-06-14T01:26:00;9.90;99.90
37844;DHT22;63793;57.632;18.292;2023-06-14T01:28:31;9.90;99.90
37844;DHT22;63793;57.632;18.292;2023-06-14T01:31:02;9.90;99.90
37844;DHT22;63793;57.632;18.292;2023-06-14T01:33:33;9.80;99.90
37844;DHT22;63793;57.632;18.292;2023-06-14T01:36:02;9.80;99.90
37844;DHT22;63793;57.632;18.292;2023-06-14T01:38:31;9.70;99.90
37844;DHT22;63793;57.632;18.292;2023-06-14T01:40:59;9.70;99.90
37844;DHT22;63793;57.632;18.292;2023-06-14T01:43:30;9.60;99.90
37844;DHT22;63793;57.632;18.292;2023-06-14T01:45:58;9.60;99.90
37844;DHT22;63793;57.632;18.292;2023-06-14T01:48:26;9.50;99.90
37844;DHT22;63793;57.632;18.292;2023-06-14T01:50:53;9.50;99.90
37844;DHT22;63793;57.632;18.292;2023-06-14T01:53:20;9.50;99.90
37844;DHT22;63793;57.632;18.292;2023-06-14T01:55:47;9.50;99.90
37844;DHT22;63793;57.632;18.292;2023-06-14T01:58:16;9.50;99.90
37844;DHT22;63793;57.632;18.292;2023-06-14T02:00:43;9.50;99.90
37844;DHT22;63793;57.632;18.292;2023-06-14T02:03:11;9.40;99.90
37844;DHT22;63793;57.632;18.292;2023-06-14T02:05:39;9.40;99.90
37844;DHT22;63793;57.632;18.292;2023-06-14T02:08:06;9.40;99.90
37844;DHT22;63793;57.632;18.292;2023-06-14T02:10:34;9.40;99.90
37844;DHT22;63793;57.632;18.292;2023-06-14T02:13:02;9.40;99.90
37844;DHT22;63793;57.632;18.292;2023-06-14T02:15:29;9.40;99.90
37844;DHT22;63793;57.632;18.292;2023-06-14T02:18:04;9.30;99.90
37844;DHT22;63793;57.632;18.292;2023-06-14T02:20:33;9.30;99.90
37844;DHT22;63793;57.632;18.292;2023-06-14T02:23:00;9.30;99.90
37844;DHT22;63793;57.632;18.292;2023-06-14T02:25:30;9.30;99.90
37844;DHT22;63793;57.632;18.292;2023-06-14T02:27:58;9.40;99.90
37844;DHT22;63793;57.632;18.292;2023-06-14T02:30:25;9.30;99.90
37844;DHT22;63793;57.632;18.292;2023-06-14T02:32:54;9.40;99.90
37844;DHT22;63793;57.632;18.292;2023-06-14T02:35:21;9.40;99.90
37844;DHT22;63793;57.632;18.292;2023-06-14T02:37:51;9.40;99.90
37844;DHT22;63793;57.632;18.292;2023-06-14T02:40:19;9.40;99.90
37844;DHT22;63793;57.632;18.292;2023-06-14T02:42:46;9.40;99.90
37844;DHT22;63793;57.632;18.292;2023-06-14T02:45:13;9.40;99.90
37844;DHT22;63793;57.632;18.292;2023-06-14T02:47:40;9.40;99.90
37844;DHT22;63793;57.632;18.292;2023-06-14T02:50:08;9.40;99.90
37844;DHT22;63793;57.632;18.292;2023-06-14T02:52:35;9.50;99.90
37844;DHT22;63793;57.632;18.292;2023-06-14T02:55:01;9.50;99.90
37844;DHT22;63793;57.632;18.292;2023-06-14T02:57:28;9.50;99.90
37844;DHT22;63793;57.632;18.292;2023-06-14T02:59:55;9.50;99.90
37844;DHT22;63793;57.632;18.292;2023-06-14T03:02:22;9.50;99.90
37844;DHT22;63793;57.632;18.292;2023-06-14T03:04:49;9.50;99.90
37844;DHT22;63793;57.632;18.292;2023-06-14T03:07:18;9.60;99.90
37844;DHT22;63793;57.632;18.292;2023-06-14T03:09:49;9.60;99.90
37844;DHT22;63793;57.632;18.292;2023-06-14T03:12:17;9.70;99.90
37844;DHT22;63793;57.632;18.292;2023-06-14T03:14:44;9.70;99.90
37844;DHT22;63793;57.632;18.292;2023-06-14T03:17:14;9.70;99.90
37844;DHT22;63793;57.632;18.292;2023-06-14T03:19:44;9.80;99.90
37844;DHT22;63793;57.632;18.292;2023-06-14T03:22:12;9.80;99.90
37844;DHT22;63793;57.632;18.292;2023-06-14T03:24:40;9.80;99.90
37844;DHT22;63793;57.632;18.292;2023-06-14T03:27:10;9.90;99.90
37844;DHT22;63793;57.632;18.292;2023-06-14T03:29:42;9.90;99.90
37844;DHT22;63793;57.632;18.292;2023-06-14T03:32:09;10.00;99.90
37844;DHT22;63793;57.632;18.292;2023-06-14T03:34:39;10.00;99.90
37844;DHT22;63793;57.632;18.292;2023-06-14T03:37:08;10.10;99.90
37844;DHT22;63793;57.632;18.292;2023-06-14T03:39:35;10.20;99.90
37844;DHT22;63793;57.632;18.292;2023-06-14T03:42:03;10.20;99.90
37844;DHT22;63793;57.632;18.292;2023-06-14T03:44:31;10.30;99.90
37844;DHT22;63793;57.632;18.292;2023-06-14T03:46:59;10.30;99.90
37844;DHT22;63793;57.632;18.292;2023-06-14T03:49:28;10.40;99.90
37844;DHT22;63793;57.632;18.292;2023-06-14T03:51:54;10.50;99.90
37844;DHT22;63793;57.632;18.292;2023-06-14T03:54:23;10.50;99.90
37844;DHT22;63793;57.632;18.292;2023-06-14T03:56:54;10.60;99.90
37844;DHT22;63793;57.632;18.292;2023-06-14T03:59:21;10.70;99.90
37844;DHT22;63793;57.632;18.292;2023-06-14T04:01:48;10.80;99.90
37844;DHT22;63793;57.632;18.292;2023-06-14T04:04:16;10.80;99.90
37844;DHT22;63793;57.632;18.292;2023-06-14T04:06:43;10.90;99.90
37844;DHT22;63793;57.632;18.292;2023-06-14T04:09:10;11.00;99.90
37844;DHT22;63793;57.632;18.292;2023-06-14T04:11:37;11.10;99.90
37844;DHT22;63793;57.632;18.292;2023-06-14T04:14:05;11.20;99.90
37844;DHT22;63793;57.632;18.292;2023-06-14T04:16:32;11.30;99.90
37844;DHT22;63793;57.632;18.292;2023-06-14T04:19:00;11.40;99.90
37844;DHT22;63793;57.632;18.292;2023-06-14T04:21:28;11.50;99.90
37844;DHT22;63793;57.632;18.292;2023-06-14T04:23:57;11.60;99.90
37844;DHT22;63793;57.632;18.292;2023-06-14T04:26:27;11.70;99.90
37844;DHT22;63793;57.632;18.292;2023-06-14T04:29:00;11.80;99.90
37844;DHT22;63793;57.632;18.292;2023-06-14T04:31:34;12.00;99.90
37844;DHT22;63793;57.632;18.292;2023-06-14T04:34:02;12.10;99.90
37844;DHT22;63793;57.632;18.292;2023-06-14T04:36:34;12.30;99.90
37844;DHT22;63793;57.632;18.292;2023-06-14T04:39:04;12.40;99.90
37844;DHT22;63793;57.632;18.292;2023-06-14T04:41:33;12.60;99.90
37844;DHT22;63793;57.632;18.292;2023-06-14T04:44:02;12.80;99.90
37844;DHT22;63793;57.632;18.292;2023-06-14T04:46:35;12.90;99.90
37844;DHT22;63793;57.632;18.292;2023-06-14T04:49:13;13.00;99.90
37844;DHT22;63793;57.632;18.292;2023-06-14T04:51:45;13.20;99.90
37844;DHT22;63793;57.632;18.292;2023-06-14T04:54:13;13.30;99.50
37844;DHT22;63793;57.632;18.292;2023-06-14T04:56:42;13.50;99.00
37844;DHT22;63793;57.632;18.292;2023-06-14T04:59:10;13.60;98.60
37844;DHT22;63793;57.632;18.292;2023-06-14T05:01:41;13.80;98.20
37844;DHT22;63793;57.632;18.292;2023-06-14T05:04:08;13.80;98.10
37844;DHT22;63793;57.632;18.292;2023-06-14T05:06:36;13.90;98.10
37844;DHT22;63793;57.632;18.292;2023-06-14T05:09:03;14.00;97.70
37844;DHT22;63793;57.632;18.292;2023-06-14T05:11:30;14.10;97.50
37844;DHT22;63793;57.632;18.292;2023-06-14T05:13:57;14.20;97.10
37844;DHT22;63793;57.632;18.292;2023-06-14T05:16:25;14.30;96.60
37844;DHT22;63793;57.632;18.292;2023-06-14T05:18:54;14.40;96.10
37844;DHT22;63793;57.632;18.292;2023-06-14T05:21:21;14.50;96.00
37844;DHT22;63793;57.632;18.292;2023-06-14T05:23:48;14.60;95.90
37844;DHT22;63793;57.632;18.292;2023-06-14T05:26:15;14.70;94.50
37844;DHT22;63793;57.632;18.292;2023-06-14T05:28:42;14.80;94.40
37844;DHT22;63793;57.632;18.292;2023-06-14T05:31:09;14.90;94.30
37844;DHT22;63793;57.632;18.292;2023-06-14T05:33:36;15.00;94.10
37844;DHT22;63793;57.632;18.292;2023-06-14T05:36:03;15.10;93.90
37844;DHT22;63793;57.632;18.292;2023-06-14T05:38:32;15.20;92.70
37844;DHT22;63793;57.632;18.292;2023-06-14T05:40:58;15.30;92.70
37844;DHT22;63793;57.632;18.292;2023-06-14T05:43:26;15.50;92.20
37844;DHT22;63793;57.632;18.292;2023-06-14T05:45:53;15.60;92.00
37844;DHT22;63793;57.632;18.292;2023-06-14T05:48:20;15.70;91.70
37844;DHT22;63793;57.632;18.292;2023-06-14T05:50:47;15.70;91.90
37844;DHT22;63793;57.632;18.292;2023-06-14T05:53:14;15.80;91.80
37844;DHT22;63793;57.632;18.292;2023-06-14T05:55:41;15.90;91.30
37844;DHT22;63793;57.632;18.292;2023-06-14T05:58:08;15.90;91.40
37844;DHT22;63793;57.632;18.292;2023-06-14T06:00:35;16.00;90.80
37844;DHT22;63793;57.632;18.292;2023-06-14T06:03:02;16.10;90.10
37844;DHT22;63793;57.632;18.292;2023-06-14T06:05:29;16.20;90.40
37844;DHT22;63793;57.632;18.292;2023-06-14T06:07:56;16.30;89.00
37844;DHT22;63793;57.632;18.292;2023-06-14T06:10:23;16.50;92.10
37844;DHT22;63793;57.632;18.292;2023-06-14T06:12:50;16.70;92.00
37844;DHT22;63793;57.632;18.292;2023-06-14T06:15:18;16.80;92.40
37844;DHT22;63793;57.632;18.292;2023-06-14T06:17:46;16.80;92.20
37844;DHT22;63793;57.632;18.292;2023-06-14T06:20:23;16.80;93.10
37844;DHT22;63793;57.632;18.292;2023-06-14T06:22:57;16.90;93.00
37844;DHT22;63793;57.632;18.292;2023-06-14T06:25:25;16.90;92.70
37844;DHT22;63793;57.632;18.292;2023-06-14T06:27:54;16.90;91.80
37844;DHT22;63793;57.632;18.292;2023-06-14T06:30:23;16.90;92.10
37844;DHT22;63793;57.632;18.292;2023-06-14T06:32:50;16.90;91.50
37844;DHT22;63793;57.632;18.292;2023-06-14T06:35:17;17.00;92.30
37844;DHT22;63793;57.632;18.292;2023-06-14T06:37:44;17.20;92.00
37844;DHT22;63793;57.632;18.292;2023-06-14T06:40:11;17.20;91.00
37844;DHT22;63793;57.632;18.292;2023-06-14T06:42:38;17.30;91.40
37844;DHT22;63793;57.632;18.292;2023-06-14T06:45:07;17.30;91.30
37844;DHT22;63793;57.632;18.292;2023-06-14T06:47:34;17.40;91.40
37844;DHT22;63793;57.632;18.292;2023-06-14T06:50:01;17.50;91.30
37844;DHT22;63793;57.632;18.292;2023-06-14T06:52:28;17.60;90.70
37844;DHT22;63793;57.632;18.292;2023-06-14T06:54:55;17.60;90.30
37844;DHT22;63793;57.632;18.292;2023-06-14T06:57:23;17.70;90.70
37844;DHT22;63793;57.632;18.292;2023-06-14T06:59:50;17.70;89.80
37844;DHT22;63793;57.632;18.292;2023-06-14T07:02:18;17.80;90.10
37844;DHT22;63793;57.632;18.292;2023-06-14T07:04:45;17.90;89.00
37844;DHT22;63793;57.632;18.292;2023-06-14T07:07:12;17.90;88.20
37844;DHT22;63793;57.632;18.292;2023-06-14T07:09:39;18.00;88.50
37844;DHT22;63793;57.632;18.292;2023-06-14T07:12:08;18.00;87.70
37844;DHT22;63793;57.632;18.292;2023-06-14T07:14:35;18.00;90.10
37844;DHT22;63793;57.632;18.292;2023-06-14T07:17:02;18.10;89.90
37844;DHT22;63793;57.632;18.292;2023-06-14T07:19:28;18.20;88.60
37844;DHT22;63793;57.632;18.292;2023-06-14T07:21:57;18.20;87.10
37844;DHT22;63793;57.632;18.292;2023-06-14T07:24:24;18.30;87.10
37844;DHT22;63793;57.632;18.292;2023-06-14T07:26:52;18.30;86.60
37844;DHT22;63793;57.632;18.292;2023-06-14T07:29:19;18.40;86.10
37844;DHT22;63793;57.632;18.292;2023-06-14T07:31:47;18.40;85.90
37844;DHT22;63793;57.632;18.292;2023-06-14T07:34:13;18.40;86.80
37844;DHT22;63793;57.632;18.292;2023-06-14T07:36:41;18.50;86.40
37844;DHT22;63793;57.632;18.292;2023-06-14T07:39:11;18.40;87.50
37844;DHT22;63793;57.632;18.292;2023-06-14T07:41:38;18.40;88.70
37844;DHT22;63793;57.632;18.292;2023-06-14T07:44:05;18.50;89.00
37844;DHT22;63793;57.632;18.292;2023-06-14T07:46:32;18.40;89.10
37844;DHT22;63793;57.632;18.292;2023-06-14T07:48:59;18.40;88.00
37844;DHT22;63793;57.632;18.292;2023-06-14T07:51:26;18.50;88.10
37844;DHT22;63793;57.632;18.292;2023-06-14T07:53:52;18.50;89.40
37844;DHT22;63793;57.632;18.292;2023-06-14T07:56:19;18.40;90.00
37844;DHT22;63793;57.632;18.292;2023-06-14T07:58:47;18.50;88.30
37844;DHT22;63793;57.632;18.292;2023-06-14T08:01:14;18.60;88.70
37844;DHT22;63793;57.632;18.292;2023-06-14T08:03:41;18.60;87.50
37844;DHT22;63793;57.632;18.292;2023-06-14T08:06:09;18.70;87.20
37844;DHT22;63793;57.632;18.292;2023-06-14T08:08:36;18.70;85.00
37844;DHT22;63793;57.632;18.292;2023-06-14T08:11:03;18.70;85.70
37844;DHT22;63793;57.632;18.292;2023-06-14T08:13:30;18.80;85.30
37844;DHT22;63793;57.632;18.292;2023-06-14T08:15:57;18.80;84.50
37844;DHT22;63793;57.632;18.292;2023-06-14T08:18:24;18.80;84.60
37844;DHT22;63793;57.632;18.292;2023-06-14T08:20:51;18.90;84.40
37844;DHT22;63793;57.632;18.292;2023-06-14T08:23:18;19.00;84.70
37844;DHT22;63793;57.632;18.292;2023-06-14T08:25:47;19.00;84.00
37844;DHT22;63793;57.632;18.292;2023-06-14T08:28:14;19.00;85.20
37844;DHT22;63793;57.632;18.292;2023-06-14T08:30:42;19.00;87.00
37844;DHT22;63793;57.632;18.292;2023-06-14T08:33:09;19.10;87.80
37844;DHT22;63793;57.632;18.292;2023-06-14T08:35:43;19.20;87.50
37844;DHT22;63793;57.632;18.292;2023-06-14T08:38:11;19.40;89.40
37844;DHT22;63793;57.632;18.292;2023-06-14T08:40:40;19.40;88.70
37844;DHT22;63793;57.632;18.292;2023-06-14T08:43:08;19.30;90.30
37844;DHT22;63793;57.632;18.292;2023-06-14T08:45:35;19.40;90.30
37844;DHT22;63793;57.632;18.292;2023-06-14T08:48:02;19.50;90.20
37844;DHT22;63793;57.632;18.292;2023-06-14T08:50:30;19.60;90.00
37844;DHT22;63793;57.632;18.292;2023-06-14T08:53:00;19.70;89.70
37844;DHT22;63793;57.632;18.292;2023-06-14T08:55:31;19.70;90.60
37844;DHT22;63793;57.632;18.292;2023-06-14T08:58:03;19.70;90.90
37844;DHT22;63793;57.632;18.292;2023-06-14T09:00:31;19.70;91.50
37844;DHT22;63793;57.632;18.292;2023-06-14T09:03:00;19.60;91.50
37844;DHT22;63793;57.632;18.292;2023-06-14T09:05:28;19.40;92.30
37844;DHT22;63793;57.632;18.292;2023-06-14T09:07:55;19.30;92.40
37844;DHT22;63793;57.632;18.292;2023-06-14T09:10:32;19.40;91.40
37844;DHT22;63793;57.632;18.292;2023-06-14T09:13:01;19.60;90.80
37844;DHT22;63793;57.632;18.292;2023-06-14T09:15:29;19.60;89.60
37844;DHT22;63793;57.632;18.292;2023-06-14T09:17:56;19.50;88.70
37844;DHT22;63793;57.632;18.292;2023-06-14T09:20:24;19.80;88.00
37844;DHT22;63793;57.632;18.292;2023-06-14T09:22:53;20.00;86.60
37844;DHT22;63793;57.632;18.292;2023-06-14T09:25:19;20.10;87.10
37844;DHT22;63793;57.632;18.292;2023-06-14T09:28:07;20.20;87.50
37844;DHT22;63793;57.632;18.292;2023-06-14T09:30:38;20.30;87.60
37844;DHT22;63793;57.632;18.292;2023-06-14T09:33:05;20.30;87.80
37844;DHT22;63793;57.632;18.292;2023-06-14T09:35:33;20.30;87.80
37844;DHT22;63793;57.632;18.292;2023-06-14T09:38:00;20.40;89.80
37844;DHT22;63793;57.632;18.292;2023-06-14T09:40:27;20.30;91.90
37844;DHT22;63793;57.632;18.292;2023-06-14T09:42:54;20.30;92.00
37844;DHT22;63793;57.632;18.292;2023-06-14T09:45:25;20.50;89.90
37844;DHT22;63793;57.632;18.292;2023-06-14T09:47:57;20.60;86.00
37844;DHT22;63793;57.632;18.292;2023-06-14T09:50:33;20.70;85.60
37844;DHT22;63793;57.632;18.292;2023-06-14T09:53:06;20.70;85.30
37844;DHT22;63793;57.632;18.292;2023-06-14T09:55:37;20.80;84.00
37844;DHT22;63793;57.632;18.292;2023-06-14T09:58:06;20.80;86.20
37844;DHT22;63793;57.632;18.292;2023-06-14T10:00:35;20.80;88.10
37844;DHT22;63793;57.632;18.292;2023-06-14T10:03:11;20.90;88.80
37844;DHT22;63793;57.632;18.292;2023-06-14T10:05:42;20.90;90.30
37844;DHT22;63793;57.632;18.292;2023-06-14T10:08:13;20.90;88.10
37844;DHT22;63793;57.632;18.292;2023-06-14T10:10:43;20.80;90.30
37844;DHT22;63793;57.632;18.292;2023-06-14T10:13:11;20.60;89.60
37844;DHT22;63793;57.632;18.292;2023-06-14T10:15:50;20.40;89.40
37844;DHT22;63793;57.632;18.292;2023-06-14T10:21:41;20.10;89.60
37844;DHT22;63793;57.632;18.292;2023-06-14T10:24:13;20.20;90.60
37844;DHT22;63793;57.632;18.292;2023-06-14T10:26:53;20.10;86.80
37844;DHT22;63793;57.632;18.292;2023-06-14T10:29:24;20.30;90.40
37844;DHT22;63793;57.632;18.292;2023-06-14T10:31:56;20.40;91.50
37844;DHT22;63793;57.632;18.292;2023-06-14T10:34:25;20.20;93.60
37844;DHT22;63793;57.632;18.292;2023-06-14T10:39:39;20.20;93.10
37844;DHT22;63793;57.632;18.292;2023-06-14T10:42:09;20.20;93.30
37844;DHT22;63793;57.632;18.292;2023-06-14T10:47:07;20.60;91.30
37844;DHT22;63793;57.632;18.292;2023-06-14T10:49:44;20.40;90.70
37844;DHT22;63793;57.632;18.292;2023-06-14T10:52:14;20.40;89.80
37844;DHT22;63793;57.632;18.292;2023-06-14T10:57:57;20.30;92.50
37844;DHT22;63793;57.632;18.292;2023-06-14T11:00:28;20.40;93.00
37844;DHT22;63793;57.632;18.292;2023-06-14T11:05:55;20.50;91.10
37844;DHT22;63793;57.632;18.292;2023-06-14T11:11:08;20.60;90.90
37844;DHT22;63793;57.632;18.292;2023-06-14T11:13:41;21.00;90.70
37844;DHT22;63793;57.632;18.292;2023-06-14T11:16:15;21.10;88.70
37844;DHT22;63793;57.632;18.292;2023-06-14T11:18:44;21.10;90.20
37844;DHT22;63793;57.632;18.292;2023-06-14T11:21:15;21.30;90.40
37844;DHT22;63793;57.632;18.292;2023-06-14T11:23:41;21.30;88.00
37844;DHT22;63793;57.632;18.292;2023-06-14T11:26:09;21.40;88.70
37844;DHT22;63793;57.632;18.292;2023-06-14T11:28:38;21.40;91.90
37844;DHT22;63793;57.632;18.292;2023-06-14T11:31:05;21.00;91.00
37844;DHT22;63793;57.632;18.292;2023-06-14T11:33:32;20.90;92.10
37844;DHT22;63793;57.632;18.292;2023-06-14T11:36:02;21.00;90.90
37844;DHT22;63793;57.632;18.292;2023-06-14T11:38:35;21.20;91.90
37844;DHT22;63793;57.632;18.292;2023-06-14T11:41:03;21.30;91.80
37844;DHT22;63793;57.632;18.292;2023-06-14T11:43:30;21.40;92.70
37844;DHT22;63793;57.632;18.292;2023-06-14T11:45:59;21.50;92.20
37844;DHT22;63793;57.632;18.292;2023-06-14T11:48:40;21.50;90.20
37844;DHT22;63793;57.632;18.292;2023-06-14T11:51:07;21.50;90.80
37844;DHT22;63793;57.632;18.292;2023-06-14T11:53:34;21.70;87.40
37844;DHT22;63793;57.632;18.292;2023-06-14T11:56:02;21.90;85.80
37844;DHT22;63793;57.632;18.292;2023-06-14T11:58:29;21.90;86.20
37844;DHT22;63793;57.632;18.292;2023-06-14T12:00:57;22.00;87.00
37844;DHT22;63793;57.632;18.292;2023-06-14T12:03:25;22.20;84.30
37844;DHT22;63793;57.632;18.292;2023-06-14T12:06:07;22.20;86.60
37844;DHT22;63793;57.632;18.292;2023-06-14T12:08:36;22.00;90.70
37844;DHT22;63793;57.632;18.292;2023-06-14T12:11:13;21.60;91.40
37844;DHT22;63793;57.632;18.292;2023-06-14T12:13:43;21.30;92.30
37844;DHT22;63793;57.632;18.292;2023-06-14T12:16:11;21.40;92.00
37844;DHT22;63793;57.632;18.292;2023-06-14T12:18:40;21.80;91.40
37844;DHT22;63793;57.632;18.292;2023-06-14T12:21:08;21.90;91.80
37844;DHT22;63793;57.632;18.292;2023-06-14T12:23:43;22.00;91.50
37844;DHT22;63793;57.632;18.292;2023-06-14T12:26:19;22.10;91.30
37844;DHT22;63793;57.632;18.292;2023-06-14T12:28:46;22.10;90.50
37844;DHT22;63793;57.632;18.292;2023-06-14T12:31:15;22.10;90.40
37844;DHT22;63793;57.632;18.292;2023-06-14T12:33:43;22.10;90.40
37844;DHT22;63793;57.632;18.292;2023-06-14T12:36:13;22.10;90.60
37844;DHT22;63793;57.632;18.292;2023-06-14T12:38:40;22.20;90.50
37844;DHT22;63793;57.632;18.292;2023-06-14T12:41:07;22.10;90.30
37844;DHT22;63793;57.632;18.292;2023-06-14T12:43:34;22.10;90.80
37844;DHT22;63793;57.632;18.292;2023-06-14T12:46:01;21.90;91.90
37844;DHT22;63793;57.632;18.292;2023-06-14T12:48:28;22.00;92.30
37844;DHT22;63793;57.632;18.292;2023-06-14T12:50:58;22.20;91.60
37844;DHT22;63793;57.632;18.292;2023-06-14T12:53:25;22.50;90.80
37844;DHT22;63793;57.632;18.292;2023-06-14T12:55:52;22.50;91.30
37844;DHT22;63793;57.632;18.292;2023-06-14T12:58:19;22.20;92.10
37844;DHT22;63793;57.632;18.292;2023-06-14T13:00:47;21.80;92.40
37844;DHT22;63793;57.632;18.292;2023-06-14T13:03:14;22.00;91.50
37844;DHT22;63793;57.632;18.292;2023-06-14T13:05:41;22.10;91.50
37844;DHT22;63793;57.632;18.292;2023-06-14T13:08:10;22.20;91.60
37844;DHT22;63793;57.632;18.292;2023-06-14T13:10:36;21.80;91.50
37844;DHT22;63793;57.632;18.292;2023-06-14T13:13:03;22.10;90.40
37844;DHT22;63793;57.632;18.292;2023-06-14T13:15:30;22.20;89.90
37844;DHT22;63793;57.632;18.292;2023-06-14T13:17:57;22.40;89.20
37844;DHT22;63793;57.632;18.292;2023-06-14T13:20:24;22.20;90.30
37844;DHT22;63793;57.632;18.292;2023-06-14T13:22:51;22.40;88.20
37844;DHT22;63793;57.632;18.292;2023-06-14T13:25:18;22.60;88.00
37844;DHT22;63793;57.632;18.292;2023-06-14T13:27:45;22.80;88.60
37844;DHT22;63793;57.632;18.292;2023-06-14T13:30:12;22.60;87.70
37844;DHT22;63793;57.632;18.292;2023-06-14T13:32:40;22.70;87.70
37844;DHT22;63793;57.632;18.292;2023-06-14T13:35:07;22.80;88.80
37844;DHT22;63793;57.632;18.292;2023-06-14T13:37:34;22.30;90.90
37844;DHT22;63793;57.632;18.292;2023-06-14T13:40:01;22.30;90.90
37844;DHT22;63793;57.632;18.292;2023-06-14T13:42:28;22.30;91.00
37844;DHT22;63793;57.632;18.292;2023-06-14T13:44:58;22.10;91.30
37844;DHT22;63793;57.632;18.292;2023-06-14T13:47:25;22.30;91.20
37844;DHT22;63793;57.632;18.292;2023-06-14T13:49:52;22.40;89.40
37844;DHT22;63793;57.632;18.292;2023-06-14T13:52:19;22.40;90.00
37844;DHT22;63793;57.632;18.292;2023-06-14T13:54:47;22.40;87.90
37844;DHT22;63793;57.632;18.292;2023-06-14T13:57:16;22.40;89.60
37844;DHT22;63793;57.632;18.292;2023-06-14T13:59:43;22.40;90.50
37844;DHT22;63793;57.632;18.292;2023-06-14T14:02:13;22.50;90.00
37844;DHT22;63793;57.632;18.292;2023-06-14T14:04:40;22.80;87.10
37844;DHT22;63793;57.632;18.292;2023-06-14T14:07:08;22.90;84.60
37844;DHT22;63793;57.632;18.292;2023-06-14T14:09:35;23.00;84.00
37844;DHT22;63793;57.632;18.292;2023-06-14T14:12:02;23.20;83.50
37844;DHT22;63793;57.632;18.292;2023-06-14T14:14:32;23.00;82.80
37844;DHT22;63793;57.632;18.292;2023-06-14T14:16:59;23.10;82.30
37844;DHT22;63793;57.632;18.292;2023-06-14T14:19:26;23.10;80.30
37844;DHT22;63793;57.632;18.292;2023-06-14T14:21:53;23.20;81.70
37844;DHT22;63793;57.632;18.292;2023-06-14T14:24:23;23.40;80.70
37844;DHT22;63793;57.632;18.292;2023-06-14T14:26:51;23.40;80.60
37844;DHT22;63793;57.632;18.292;2023-06-14T14:29:20;23.40;79.10
37844;DHT22;63793;57.632;18.292;2023-06-14T14:31:47;23.40;78.80
37844;DHT22;63793;57.632;18.292;2023-06-14T14:34:14;23.40;78.70
37844;DHT22;63793;57.632;18.292;2023-06-14T14:36:40;23.50;78.30
37844;DHT22;63793;57.632;18.292;2023-06-14T14:39:09;23.60;77.80
37844;DHT22;63793;57.632;18.292;2023-06-14T14:41:36;23.80;76.60
37844;DHT22;63793;57.632;18.292;2023-06-14T14:44:08;23.90;76.40
37844;DHT22;63793;57.632;18.292;2023-06-14T14:46:35;24.00;75.60
37844;DHT22;63793;57.632;18.292;2023-06-14T14:49:02;24.20;75.80
37844;DHT22;63793;57.632;18.292;2023-06-14T14:51:29;24.40;75.30
37844;DHT22;63793;57.632;18.292;2023-06-14T14:53:56;24.70;74.40
37844;DHT22;63793;57.632;18.292;2023-06-14T14:56:23;24.80;73.80
37844;DHT22;63793;57.632;18.292;2023-06-14T14:58:50;24.80;73.40
37844;DHT22;63793;57.632;18.292;2023-06-14T15:01:17;24.60;73.90
37844;DHT22;63793;57.632;18.292;2023-06-14T15:03:45;24.70;74.10
37844;DHT22;63793;57.632;18.292;2023-06-14T15:06:15;24.90;73.70
37844;DHT22;63793;57.632;18.292;2023-06-14T15:08:42;24.90;72.90
37844;DHT22;63793;57.632;18.292;2023-06-14T15:11:09;25.00;73.20
37844;DHT22;63793;57.632;18.292;2023-06-14T15:13:36;25.00;73.60
37844;DHT22;63793;57.632;18.292;2023-06-14T15:16:02;25.00;72.90
37844;DHT22;63793;57.632;18.292;2023-06-14T15:18:30;25.30;73.30
37844;DHT22;63793;57.632;18.292;2023-06-14T15:20:57;25.60;72.60
37844;DHT22;63793;57.632;18.292;2023-06-14T15:23:24;25.90;72.90
37844;DHT22;63793;57.632;18.292;2023-06-14T15:25:50;25.90;72.20
37844;DHT22;63793;57.632;18.292;2023-06-14T15:28:18;26.00;71.40
37844;DHT22;63793;57.632;18.292;2023-06-14T15:30:45;26.10;71.20
37844;DHT22;63793;57.632;18.292;2023-06-14T15:33:12;26.10;71.50
37844;DHT22;63793;57.632;18.292;2023-06-14T15:35:39;26.10;71.70
37844;DHT22;63793;57.632;18.292;2023-06-14T15:38:07;26.20;71.70
37844;DHT22;63793;57.632;18.292;2023-06-14T15:40:34;26.20;71.30
37844;DHT22;63793;57.632;18.292;2023-06-14T15:43:01;26.20;71.50
37844;DHT22;63793;57.632;18.292;2023-06-14T15:45:27;26.40;70.50
37844;DHT22;63793;57.632;18.292;2023-06-14T15:47:55;26.40;70.60
37844;DHT22;63793;57.632;18.292;2023-06-14T15:50:22;26.40;70.90